createdAt,value
2022-12-09T00:01:38.985Z,7.20
2022-12-09T00:04:41.907Z,8.40
2022-12-09T00:07:45.287Z,6.10
2022-12-09T00:10:48.303Z,7.90
2022-12-09T00:13:53.806Z,6.30
2022-12-09T00:16:56.608Z,4.10
2022-12-09T00:19:59.651Z,6.10
2022-12-09T00:23:02.703Z,5.70
2022-12-09T00:26:05.624Z,5.70
2022-12-09T00:29:08.636Z,6.30
2022-12-09T00:32:11.552Z,5.00
2022-12-09T00:35:14.346Z,7.60
2022-12-09T00:38:17.141Z,7.60
2022-12-09T00:41:19.953Z,8.50
2022-12-09T00:44:22.972Z,4.10
2022-12-09T00:47:25.975Z,8.30
2022-12-09T00:50:28.790Z,9.30
2022-12-09T00:53:32.028Z,6.20
2022-12-09T00:56:34.799Z,6.20
2022-12-09T00:59:37.567Z,7.20
2022-12-09T01:02:40.684Z,6.70
2022-12-09T01:05:44.527Z,7.50
2022-12-09T01:08:47.883Z,8.80
2022-12-09T01:11:51.080Z,7.60
2022-12-09T01:14:54.089Z,7.20
2022-12-09T01:17:57.262Z,10.60
2022-12-09T01:21:00.031Z,11.60
2022-12-09T01:24:08.677Z,14.60
2022-12-09T01:27:11.661Z,15.80
2022-12-09T01:30:15.377Z,7.70
2022-12-09T01:33:18.158Z,13.60
2022-12-09T01:36:24.791Z,16.00
2022-12-09T01:39:27.833Z,15.90
2022-12-09T01:42:30.690Z,12.70
2022-12-09T01:45:40.872Z,10.10
2022-12-09T01:48:46.518Z,14.10
2022-12-09T01:52:02.115Z,7.30
2022-12-09T01:55:06.928Z,14.70
2022-12-09T01:58:10.481Z,11.70
2022-12-09T02:01:14.445Z,13.00
2022-12-09T02:04:17.371Z,12.50
2022-12-09T02:07:21.136Z,10.70
2022-12-09T02:10:24.769Z,7.90
2022-12-09T02:14:05.132Z,10.70
2022-12-09T02:17:36.058Z,12.80
2022-12-09T02:20:43.533Z,11.60
2022-12-09T02:23:59.441Z,13.40
2022-12-09T02:27:33.048Z,13.80
2022-12-09T02:30:52.959Z,8.20
2022-12-09T02:34:19.067Z,13.30
2022-12-09T02:37:50.077Z,13.20
2022-12-09T02:40:59.489Z,11.90
2022-12-09T02:44:11.756Z,13.30
2022-12-09T02:47:24.512Z,12.70
2022-12-09T02:50:32.717Z,14.60
2022-12-09T02:53:37.451Z,11.70
2022-12-09T02:56:44.029Z,13.30
2022-12-09T02:59:46.908Z,7.80
2022-12-09T03:02:53.447Z,13.50
2022-12-09T03:06:07.221Z,15.10
2022-12-09T03:09:14.492Z,15.70
2022-12-09T03:12:20.173Z,13.70
2022-12-09T03:15:28.166Z,14.40
2022-12-09T03:18:33.486Z,13.20
2022-12-09T03:21:42.790Z,13.90
2022-12-09T03:25:15.156Z,14.50
2022-12-09T03:28:24.006Z,15.60
2022-12-09T03:31:30.924Z,19.50
2022-12-09T03:34:38.967Z,11.40
2022-12-09T03:37:44.170Z,9.50
2022-12-09T03:40:52.530Z,17.30
2022-12-09T03:44:21.373Z,15.30
2022-12-09T03:47:24.475Z,15.60
2022-12-09T03:50:32.195Z,16.00
2022-12-09T03:53:47.564Z,14.30
2022-12-09T03:56:54.900Z,15.90
2022-12-09T04:00:01.716Z,13.90
2022-12-09T04:03:06.539Z,15.40
2022-12-09T04:06:09.547Z,14.30
2022-12-09T04:09:13.212Z,13.80
2022-12-09T04:12:16.335Z,14.30
2022-12-09T04:15:19.431Z,15.70
2022-12-09T04:18:22.455Z,14.30
2022-12-09T04:21:25.558Z,14.00
2022-12-09T04:24:28.323Z,14.30
2022-12-09T04:27:31.343Z,14.30
2022-12-09T04:30:34.313Z,16.00
2022-12-09T04:33:37.550Z,15.40
2022-12-09T04:36:40.322Z,13.30
2022-12-09T04:39:43.106Z,12.70
2022-12-09T04:42:46.782Z,14.20
2022-12-09T04:45:50.017Z,13.60
2022-12-09T04:48:53.315Z,14.20
2022-12-09T04:51:56.258Z,14.20
2022-12-09T04:54:59.240Z,16.00
2022-12-09T04:58:02.073Z,13.40
2022-12-09T05:01:09.795Z,15.10
2022-12-09T05:04:12.989Z,14.30
2022-12-09T05:07:16.452Z,14.60
2022-12-09T05:10:19.664Z,14.20
2022-12-09T05:13:23.135Z,14.30
2022-12-09T05:16:26.352Z,15.60
2022-12-09T05:19:29.614Z,15.50
2022-12-09T05:22:33.020Z,16.40
2022-12-09T05:25:36.725Z,15.70
2022-12-09T05:28:40.210Z,14.70
2022-12-09T05:31:43.372Z,14.80
2022-12-09T05:34:46.325Z,14.90
2022-12-09T05:37:49.175Z,19.80
2022-12-09T05:40:52.705Z,15.90
2022-12-09T05:43:56.615Z,17.70
2022-12-09T05:46:59.666Z,17.60
2022-12-09T05:50:07.871Z,17.50
2022-12-09T05:53:11.704Z,18.60
2022-12-09T05:56:17.055Z,15.70
2022-12-09T05:59:20.046Z,16.50
2022-12-09T06:02:23.340Z,17.30
2022-12-09T06:05:26.398Z,15.90
2022-12-09T06:08:29.792Z,17.60
2022-12-09T06:11:33.343Z,20.80
2022-12-09T06:14:36.571Z,24.60
2022-12-09T06:17:39.533Z,26.70
2022-12-09T06:20:42.603Z,24.70
2022-12-09T06:23:45.654Z,24.30
2022-12-09T06:26:49.407Z,24.20
2022-12-09T06:29:52.374Z,20.50
2022-12-09T06:32:55.599Z,22.00
2022-12-09T06:36:03.468Z,23.30
2022-12-09T06:39:10.509Z,21.60
2022-12-09T06:42:14.428Z,28.00
2022-12-09T06:45:19.152Z,26.50
2022-12-09T06:48:22.305Z,23.30
2022-12-09T06:51:26.184Z,24.50
2022-12-09T06:54:29.047Z,22.10
2022-12-09T06:57:32.275Z,21.30
2022-12-09T07:00:35.449Z,22.00
2022-12-09T07:03:38.501Z,22.20
2022-12-09T07:06:44.355Z,24.60
2022-12-09T07:09:48.103Z,26.20
2022-12-09T07:12:51.358Z,25.70
2022-12-09T07:15:54.618Z,24.40
2022-12-09T07:18:58.168Z,26.50
2022-12-09T07:22:01.284Z,24.10
2022-12-09T07:25:06.089Z,24.20
2022-12-09T07:28:09.663Z,28.50
2022-12-09T07:31:21.618Z,30.30
2022-12-09T07:37:28.342Z,25.90
2022-12-09T07:40:31.508Z,28.90
2022-12-09T07:43:36.022Z,26.60
2022-12-09T07:46:39.906Z,25.70
2022-12-09T07:49:43.745Z,28.00
2022-12-09T07:52:46.897Z,28.70
2022-12-09T07:55:49.650Z,28.20
2022-12-09T07:58:54.195Z,28.10
2022-12-09T08:02:02.533Z,31.40
2022-12-09T08:05:09.242Z,26.60
2022-12-09T08:08:12.901Z,27.90
2022-12-09T08:11:22.304Z,36.00
2022-12-09T08:14:25.342Z,37.80
2022-12-09T08:17:29.818Z,36.50
2022-12-09T08:20:33.592Z,33.80
2022-12-09T08:23:37.339Z,36.50
2022-12-09T08:26:41.212Z,39.90
2022-12-09T08:29:44.383Z,38.10
2022-12-09T08:32:47.882Z,47.00
2022-12-09T08:35:51.771Z,32.20
2022-12-09T08:38:56.146Z,30.40
2022-12-09T08:41:59.465Z,24.10
2022-12-09T08:45:03.266Z,19.70
2022-12-09T08:48:07.884Z,23.90
2022-12-09T08:51:12.358Z,28.10
2022-12-09T08:54:15.894Z,24.90
2022-12-09T08:57:24.248Z,27.20
2022-12-09T09:00:27.119Z,26.10
2022-12-09T09:03:30.450Z,27.70
2022-12-09T09:06:34.189Z,32.30
2022-12-09T09:09:37.995Z,30.20
2022-12-09T09:12:43.832Z,28.60
2022-12-09T09:15:48.073Z,31.60
2022-12-09T09:18:51.667Z,29.90
2022-12-09T09:21:56.089Z,27.80
2022-12-09T09:24:59.029Z,29.10
2022-12-09T09:28:02.207Z,21.90
2022-12-09T09:31:07.515Z,22.10
2022-12-09T09:34:11.333Z,20.60
2022-12-09T09:37:14.624Z,26.10
2022-12-09T09:40:18.061Z,25.10
2022-12-09T09:43:25.808Z,24.40
2022-12-09T09:46:39.816Z,24.10
2022-12-09T09:49:46.238Z,19.80
2022-12-09T09:56:07.301Z,26.40
2022-12-09T09:59:37.499Z,22.70
2022-12-09T10:03:25.574Z,20.50
2022-12-09T10:06:55.476Z,21.40
2022-12-09T10:10:20.693Z,24.80
2022-12-09T10:13:44.229Z,22.30
2022-12-09T10:17:15.857Z,26.70
2022-12-09T10:20:23.468Z,21.50
2022-12-09T10:23:31.397Z,21.70
2022-12-09T10:26:35.304Z,23.60
2022-12-09T10:29:46.436Z,20.50
2022-12-09T10:32:50.203Z,22.20
2022-12-09T10:35:53.494Z,21.50
2022-12-09T10:38:56.822Z,18.50
2022-12-09T10:42:20.194Z,18.20
2022-12-09T10:45:23.128Z,28.10
2022-12-09T10:48:44.801Z,26.20
2022-12-09T10:51:53.352Z,18.10
2022-12-09T10:54:58.117Z,21.70
2022-12-09T10:58:29.709Z,22.10
2022-12-09T11:01:49.651Z,19.40
2022-12-09T11:04:53.488Z,20.80
2022-12-09T11:07:58.685Z,23.00
2022-12-09T11:11:02.764Z,24.50
2022-12-09T11:14:23.098Z,23.70
2022-12-09T11:17:30.845Z,25.10
2022-12-09T11:20:36.482Z,24.80
2022-12-09T11:23:58.870Z,23.20
2022-12-09T11:27:25.136Z,27.00
2022-12-09T11:31:20.045Z,31.50
2022-12-09T11:34:23.343Z,30.90
2022-12-09T11:37:28.729Z,28.60
2022-12-09T11:40:32.831Z,32.40
2022-12-09T11:43:42.936Z,28.50
2022-12-09T11:46:45.743Z,31.80
2022-12-09T11:49:53.247Z,32.30
2022-12-09T11:53:13.137Z,31.60
2022-12-09T11:56:19.896Z,31.60
2022-12-09T11:59:34.765Z,34.00
2022-12-09T12:02:46.090Z,31.70
2022-12-09T12:05:51.784Z,29.70
2022-12-09T12:09:17.209Z,31.80
2022-12-09T12:12:44.172Z,31.90
2022-12-09T12:15:50.783Z,31.30
2022-12-09T12:18:59.731Z,29.90
2022-12-09T12:22:17.450Z,32.10
2022-12-09T12:25:48.010Z,28.60
2022-12-09T12:29:07.777Z,28.30
2022-12-09T12:32:31.937Z,32.00
2022-12-09T12:36:03.130Z,29.60
2022-12-09T12:39:42.239Z,31.70
2022-12-09T12:43:19.307Z,33.70
2022-12-09T12:46:24.941Z,32.60
2022-12-09T12:49:55.528Z,40.30
2022-12-09T12:53:26.180Z,42.10
2022-12-09T12:57:09.651Z,31.00
2022-12-09T13:00:20.890Z,20.80
2022-12-09T13:03:36.785Z,30.10
2022-12-09T13:06:39.507Z,36.90
2022-12-09T13:10:06.062Z,35.60
2022-12-09T13:13:18.990Z,35.40
2022-12-09T13:16:31.794Z,39.50
2022-12-09T13:19:51.365Z,32.60
2022-12-09T13:23:02.677Z,34.30
2022-12-09T13:26:43.328Z,33.80
2022-12-09T13:30:01.271Z,36.40
2022-12-09T13:33:13.293Z,36.00
2022-12-09T13:36:18.836Z,29.00
2022-12-09T13:39:40.097Z,24.30
2022-12-09T13:42:58.933Z,29.10
2022-12-09T13:46:02.571Z,27.10
2022-12-09T13:49:10.932Z,29.80
2022-12-09T13:52:39.984Z,38.20
2022-12-09T13:55:56.159Z,24.50
2022-12-09T13:59:12.770Z,24.10
2022-12-09T14:02:24.718Z,25.30
2022-12-09T14:05:31.504Z,31.80
2022-12-09T14:08:45.890Z,23.00
2022-12-09T14:11:54.195Z,22.40
2022-12-09T14:15:23.447Z,30.30
2022-12-09T14:18:30.526Z,12.30
2022-12-09T14:21:33.659Z,19.50
2022-12-09T14:24:36.866Z,23.50
2022-12-09T14:27:39.703Z,17.60
2022-12-09T14:31:04.845Z,20.50
2022-12-09T14:34:28.649Z,24.20
2022-12-09T14:38:02.258Z,21.10
2022-12-09T14:41:32.739Z,22.10
2022-12-09T14:44:39.555Z,18.90
2022-12-09T14:47:47.816Z,20.00
2022-12-09T14:51:19.949Z,18.80
2022-12-09T14:54:27.891Z,20.40
2022-12-09T14:57:36.838Z,22.90
2022-12-09T15:00:41.679Z,22.20
2022-12-09T15:04:21.217Z,23.80
2022-12-09T15:07:28.979Z,22.00
2022-12-09T15:10:37.818Z,20.40
2022-12-09T15:13:46.898Z,20.00
2022-12-09T15:16:51.061Z,20.90
2022-12-09T15:20:02.020Z,17.50
2022-12-09T15:23:14.801Z,19.20
2022-12-09T15:26:26.188Z,20.60
2022-12-09T15:29:31.401Z,18.70
2022-12-09T15:32:38.931Z,16.80
2022-12-09T15:35:43.674Z,18.40
2022-12-09T15:38:52.967Z,18.70
2022-12-09T15:42:08.324Z,14.40
2022-12-09T15:45:15.926Z,16.60
2022-12-09T15:48:23.933Z,15.40
2022-12-09T15:51:28.861Z,20.50
2022-12-09T15:54:36.294Z,15.90
2022-12-09T15:57:40.256Z,17.20
2022-12-09T16:00:49.119Z,18.50
2022-12-09T16:03:54.593Z,24.80
2022-12-09T16:07:05.608Z,14.40
2022-12-09T16:10:15.553Z,20.10
2022-12-09T16:13:21.348Z,21.50
2022-12-09T16:16:30.073Z,28.40
2022-12-09T16:19:34.595Z,20.00
2022-12-09T16:22:38.127Z,19.90
2022-12-09T16:25:46.235Z,23.80
2022-12-09T16:29:04.146Z,26.10
2022-12-09T16:32:25.130Z,24.10
2022-12-09T16:35:36.261Z,23.20
2022-12-09T16:38:39.051Z,22.40
2022-12-09T16:42:01.790Z,16.20
2022-12-09T16:45:23.464Z,14.90
2022-12-09T16:48:28.108Z,17.70
2022-12-09T16:51:31.343Z,19.80
2022-12-09T16:54:34.207Z,19.70
2022-12-09T16:57:36.991Z,23.50
2022-12-09T17:00:39.943Z,21.20
2022-12-09T17:03:52.632Z,20.30
2022-12-09T17:09:58.231Z,27.40
2022-12-09T17:13:02.870Z,26.40
2022-12-09T17:16:07.205Z,29.70
2022-12-09T17:19:10.198Z,24.10
2022-12-09T17:22:13.000Z,22.00
2022-12-09T17:25:15.759Z,23.40
2022-12-09T17:28:18.557Z,36.20
2022-12-09T17:31:23.758Z,21.80
2022-12-09T17:34:26.703Z,11.30
2022-12-09T17:37:29.467Z,23.40
2022-12-09T17:40:34.916Z,22.40
2022-12-09T17:43:37.867Z,23.60
2022-12-09T17:46:40.685Z,23.70
2022-12-09T17:49:43.431Z,24.10
2022-12-09T17:52:46.251Z,23.60
2022-12-09T17:55:49.123Z,21.40
2022-12-09T17:58:58.622Z,24.60
2022-12-09T18:02:03.770Z,19.90
2022-12-09T18:05:06.830Z,22.20
2022-12-09T18:08:09.651Z,23.80
2022-12-09T18:11:12.524Z,21.60
2022-12-09T18:14:16.306Z,19.60
2022-12-09T18:17:19.145Z,16.70
2022-12-09T18:20:21.901Z,17.40
2022-12-09T18:23:24.675Z,23.20
2022-12-09T18:26:31.353Z,19.50
2022-12-09T18:29:37.458Z,20.90
2022-12-09T18:32:41.017Z,18.60
2022-12-09T18:35:43.807Z,20.10
2022-12-09T18:38:47.451Z,18.00
2022-12-09T18:41:50.255Z,23.80
2022-12-09T18:44:52.975Z,23.00
2022-12-09T18:47:55.716Z,18.90
2022-12-09T18:50:58.679Z,18.50
2022-12-09T18:54:02.857Z,16.50
2022-12-09T18:57:05.760Z,17.00
2022-12-09T19:00:10.347Z,19.90
2022-12-09T19:03:13.294Z,20.20
2022-12-09T19:06:28.451Z,18.40
2022-12-09T19:09:34.816Z,34.40
2022-12-09T19:12:47.190Z,17.90
2022-12-09T19:15:50.648Z,19.90
2022-12-09T19:18:54.033Z,12.70
2022-12-09T19:21:57.168Z,18.40
2022-12-09T19:24:59.921Z,19.30
2022-12-09T19:28:02.712Z,16.00
2022-12-09T19:31:19.308Z,19.70
2022-12-09T19:34:30.161Z,13.90
2022-12-09T19:37:32.971Z,16.10
2022-12-09T19:40:37.305Z,18.80
2022-12-09T19:43:40.196Z,22.30
2022-12-09T19:46:44.037Z,19.20
2022-12-09T19:49:46.765Z,20.50
2022-12-09T19:52:49.603Z,16.70
2022-12-09T19:55:52.367Z,19.30
2022-12-09T19:58:55.582Z,17.70
2022-12-09T20:01:58.410Z,18.90
2022-12-09T20:05:01.236Z,12.00
2022-12-09T20:08:04.329Z,19.30
2022-12-09T20:11:12.524Z,18.70
2022-12-09T20:14:15.482Z,18.30
2022-12-09T20:17:18.638Z,18.20
2022-12-09T20:20:21.385Z,19.50
2022-12-09T20:23:24.147Z,20.20
2022-12-09T20:26:30.269Z,22.60
2022-12-09T20:29:37.550Z,18.60
2022-12-09T20:32:40.958Z,20.70
2022-12-09T20:35:43.752Z,19.80
2022-12-09T20:38:55.821Z,21.10
2022-12-09T20:41:59.429Z,26.10
2022-12-09T20:45:02.345Z,22.10
2022-12-09T20:48:05.255Z,20.10
2022-12-09T20:51:10.611Z,21.60
2022-12-09T20:54:13.943Z,23.30
2022-12-09T20:57:16.942Z,19.20
2022-12-09T21:00:19.798Z,21.30
2022-12-09T21:03:23.141Z,21.10
2022-12-09T21:06:31.640Z,21.50
2022-12-09T21:09:34.379Z,21.10
2022-12-09T21:12:37.246Z,22.30
2022-12-09T21:15:40.091Z,20.20
2022-12-09T21:18:43.597Z,20.20
2022-12-09T21:21:49.465Z,19.90
2022-12-09T21:24:52.350Z,19.90
2022-12-09T21:27:56.647Z,21.60
2022-12-09T21:31:00.122Z,22.50
2022-12-09T21:34:05.719Z,22.00
2022-12-09T21:37:08.589Z,20.90
2022-12-09T21:40:12.171Z,23.20
2022-12-09T21:43:15.012Z,21.20
2022-12-09T21:46:20.846Z,19.40
2022-12-09T21:49:23.926Z,19.10
2022-12-09T21:52:27.662Z,19.80
2022-12-09T21:55:33.094Z,22.30
2022-12-09T21:58:35.883Z,18.40
2022-12-09T22:01:41.762Z,17.50
2022-12-09T22:04:44.677Z,17.50
2022-12-09T22:07:50.684Z,16.00
2022-12-09T22:10:53.832Z,17.70
2022-12-09T22:14:01.368Z,16.20
2022-12-09T22:17:04.208Z,16.00
2022-12-09T22:20:44.466Z,15.70
2022-12-09T22:23:32.220Z,15.40
2022-12-09T22:26:35.437Z,14.50
2022-12-09T22:29:38.341Z,14.00
2022-12-09T22:32:42.801Z,13.60
2022-12-09T22:35:48.220Z,14.30
2022-12-09T22:38:51.184Z,14.40
2022-12-09T22:41:53.936Z,14.00
2022-12-09T22:44:56.697Z,14.70
2022-12-09T22:47:59.482Z,13.90
2022-12-09T22:51:07.854Z,14.70
2022-12-09T22:54:11.351Z,13.10
2022-12-09T22:57:14.128Z,13.50
2022-12-09T23:00:17.601Z,12.70
2022-12-09T23:03:20.796Z,13.40
2022-12-09T23:06:25.881Z,15.00
2022-12-09T23:09:28.665Z,13.70
2022-12-09T23:12:31.529Z,13.40
2022-12-09T23:15:35.072Z,16.30
2022-12-09T23:18:38.656Z,14.50
2022-12-09T23:21:43.193Z,16.10
2022-12-09T23:24:47.769Z,15.40
2022-12-09T23:27:50.662Z,16.90
2022-12-09T23:30:53.433Z,16.50
2022-12-09T23:33:58.847Z,16.70
2022-12-09T23:37:01.719Z,16.80
2022-12-09T23:40:06.014Z,14.80
2022-12-09T23:43:09.117Z,14.50
2022-12-09T23:46:16.216Z,13.30
2022-12-09T23:49:19.324Z,13.30
2022-12-09T23:52:25.188Z,13.70
2022-12-09T23:55:27.956Z,12.90
2022-12-09T23:58:30.760Z,14.20
